Time;durP1;ratioP1;P1;durP2;ratioP2;P2;SDS_P1;SDS_P2;PMS_P1;PMS_P2;Temp;Humidity;BMP_temperature;BMP_pressure;BME280_temperature;BME280_humidity;BME280_pressure;Samples;Min_cycle;Max_cycle;Signal;HPM_P1;HPM_P2
2022/09/29 00:01:05;;;;;;;2.00;0.40;;;21.50;99.90;;;;;;5036285;28;20173;-72
2022/09/29 00:03:33;;;;;;;2.27;0.70;;;21.40;99.90;;;;;;5036174;28;20292;-73
2022/09/29 00:06:01;;;;;;;0.57;0.50;;;21.90;99.90;;;;;;5036406;28;20231;-71
2022/09/29 00:08:30;;;;;;;1.23;0.57;;;21.60;99.90;;;;;;5036136;28;20191;-71
2022/09/29 00:10:57;;;;;;;0.60;0.33;;;21.40;99.90;;;;;;5035889;28;20216;-71
2022/09/29 00:13:25;;;;;;;0.33;0.33;;;21.20;99.90;;;;;;5035740;28;20737;-71
2022/09/29 00:16:02;;;;;;;0.50;0.40;;;20.40;99.90;;;;;;5035923;28;20641;-71
2022/09/29 00:18:32;;;;;;;1.40;0.50;;;20.00;99.90;;;;;;5035520;28;20540;-70
2022/09/29 00:21:11;;;;;;;0.43;0.43;;;19.90;99.90;;;;;;5035562;28;20359;-72
2022/09/29 00:23:39;;;;;;;0.40;0.40;;;19.90;99.90;;;;;;5035717;28;20217;-73
2022/09/29 00:26:12;;;;;;;0.80;0.50;;;19.80;99.90;;;;;;5035854;28;20165;-71
2022/09/29 00:28:47;;;;;;;0.67;0.40;;;20.00;99.90;;;;;;5035783;28;20688;-72
2022/09/29 00:31:15;;;;;;;1.07;0.47;;;20.10;99.90;;;;;;5035987;28;20193;-71
2022/09/29 00:33:42;;;;;;;0.50;0.50;;;20.30;99.90;;;;;;5035614;28;20737;-71
2022/09/29 00:36:18;;;;;;;0.40;0.40;;;21.20;99.90;;;;;;5035759;28;20178;-72
2022/09/29 00:38:47;;;;;;;0.50;0.40;;;21.70;99.90;;;;;;5035389;28;20263;-72
2022/09/29 00:41:17;;;;;;;0.80;0.60;;;21.90;99.90;;;;;;5035526;28;20173;-71
2022/09/29 00:44:02;;;;;;;0.43;0.40;;;22.30;99.90;;;;;;5033923;28;20209;-72
2022/09/29 00:46:54;;;;;;;0.60;0.30;;;22.50;99.90;;;;;;5035324;28;20180;-72
2022/09/29 00:49:43;;;;;;;0.97;0.50;;;21.60;99.90;;;;;;5036033;28;20195;-71
2022/09/29 00:52:26;;;;;;;0.57;0.47;;;20.80;99.90;;;;;;5035313;28;20189;-72
2022/09/29 00:55:06;;;;;;;2.60;1.00;;;20.50;99.90;;;;;;5035390;28;20182;-71
2022/09/29 00:57:44;;;;;;;0.97;0.60;;;19.90;99.90;;;;;;5035178;28;20545;-71
2022/09/29 01:00:16;;;;;;;0.40;0.40;;;19.40;99.90;;;;;;5035153;28;20185;-72
2022/09/29 01:02:56;;;;;;;0.40;0.40;;;19.30;99.90;;;;;;5035103;28;20214;-72
2022/09/29 01:05:33;;;;;;;2.23;0.40;;;19.30;99.90;;;;;;5035752;28;20184;-72
2022/09/29 01:08:22;;;;;;;1.80;0.60;;;19.30;99.90;;;;;;5035409;28;20536;-72
2022/09/29 01:10:52;;;;;;;0.50;0.50;;;18.60;99.90;;;;;;5034861;28;20181;-72
2022/09/29 01:13:21;;;;;;;2.47;0.60;;;18.30;99.90;;;;;;5034944;28;20201;-72
2022/09/29 01:15:48;;;;;;;5.63;0.70;;;18.90;99.90;;;;;;5033517;28;20185;-72
2022/09/29 01:18:16;;;;;;;1.60;0.57;;;19.30;99.90;;;;;;5034487;28;20178;-71
2022/09/29 01:21:06;;;;;;;2.20;0.50;;;19.30;99.90;;;;;;5034458;28;20237;-73
2022/09/29 01:24:01;;;;;;;0.40;0.40;;;19.10;99.90;;;;;;5034436;28;20221;-71
2022/09/29 01:27:04;;;;;;;2.23;0.50;;;18.90;99.90;;;;;;5033897;28;20177;-72
2022/09/29 01:29:56;;;;;;;0.90;0.50;;;18.30;99.90;;;;;;5012041;28;20204;-72
2022/09/29 01:32:38;;;;;;;0.80;0.60;;;18.50;99.90;;;;;;5033157;28;20617;-71
2022/09/29 01:35:30;;;;;;;0.40;0.40;;;19.00;99.90;;;;;;5034304;28;20173;-73
2022/09/29 01:38:16;;;;;;;0.60;0.40;;;19.80;99.90;;;;;;5034553;28;20184;-72
2022/09/29 01:41:09;;;;;;;0.70;0.47;;;21.00;99.90;;;;;;5034530;28;20189;-71
2022/09/29 01:44:08;;;;;;;0.37;0.37;;;21.60;99.90;;;;;;5011232;28;20299;-71
2022/09/29 01:46:55;;;;;;;0.40;0.30;;;21.30;99.90;;;;;;5034080;28;20177;-71
2022/09/29 01:49:27;;;;;;;0.93;0.57;;;22.00;99.90;;;;;;5034467;28;20177;-72
2022/09/29 01:52:01;;;;;;;1.80;0.63;;;21.60;99.90;;;;;;5033892;28;20182;-72
2022/09/29 01:54:54;;;;;;;1.30;0.40;;;21.60;99.90;;;;;;5034150;28;20213;-73
2022/09/29 01:57:46;;;;;;;0.70;0.60;;;22.20;99.90;;;;;;5032667;28;20181;-72
2022/09/29 02:00:17;;;;;;;0.40;0.40;;;21.90;99.90;;;;;;5019065;28;20189;-71
2022/09/29 02:03:00;;;;;;;0.30;0.30;;;21.60;99.90;;;;;;5033762;28;20236;-71
2022/09/29 02:05:58;;;;;;;1.30;0.50;;;22.00;99.90;;;;;;5034188;28;20197;-72
2022/09/29 02:08:31;;;;;;;1.77;0.70;;;22.20;99.90;;;;;;5033126;28;20185;-72
2022/09/29 02:11:07;;;;;;;2.77;1.07;;;22.60;99.90;;;;;;5033746;28;20177;-72
2022/09/29 02:13:48;;;;;;;1.87;0.50;;;22.70;99.90;;;;;;5034125;28;20266;-73
2022/09/29 02:16:20;;;;;;;1.77;0.53;;;22.10;99.90;;;;;;5033965;28;20169;-72
2022/09/29 02:18:58;;;;;;;1.90;0.67;;;21.50;99.90;;;;;;5016107;28;20174;-71
2022/09/29 02:21:27;;;;;;;0.83;0.60;;;20.90;99.90;;;;;;5032591;28;20285;-72
2022/09/29 02:23:56;;;;;;;0.50;0.40;;;20.90;99.90;;;;;;5033472;28;20212;-74
2022/09/29 02:26:29;;;;;;;0.60;0.60;;;21.00;99.90;;;;;;5033582;28;20180;-71
2022/09/29 02:28:57;;;;;;;9.53;0.60;;;21.30;99.90;;;;;;5033642;28;20584;-71
2022/09/29 02:31:25;;;;;;;0.40;0.30;;;21.80;99.90;;;;;;5033601;28;20175;-71
2022/09/29 02:33:53;;;;;;;1.13;0.70;;;21.80;99.90;;;;;;5033404;28;20176;-73
2022/09/29 02:36:42;;;;;;;1.27;0.50;;;22.10;99.90;;;;;;5033332;28;20170;-74
2022/09/29 02:39:26;;;;;;;0.80;0.40;;;21.80;99.90;;;;;;5033537;28;20206;-74
2022/09/29 02:42:43;;;;;;;1.47;0.50;;;21.50;99.90;;;;;;5033853;28;20179;-72
2022/09/29 02:45:14;;;;;;;0.77;0.40;;;21.10;99.90;;;;;;5033604;28;20702;-74
2022/09/29 02:47:58;;;;;;;1.93;0.40;;;21.10;99.90;;;;;;5033685;28;20539;-71
2022/09/29 02:50:43;;;;;;;1.43;0.50;;;21.60;99.90;;;;;;5033269;28;20656;-73
2022/09/29 02:53:23;;;;;;;0.83;0.60;;;22.10;99.90;;;;;;5033842;28;20648;-73
2022/09/29 02:56:09;;;;;;;2.97;0.43;;;22.30;99.90;;;;;;5033296;28;20249;-73
2022/09/29 02:58:53;;;;;;;0.67;0.40;;;22.80;99.90;;;;;;5031582;28;20207;-72
2022/09/29 03:01:21;;;;;;;0.60;0.60;;;22.40;99.90;;;;;;5033818;28;20281;-73
2022/09/29 03:03:49;;;;;;;1.17;0.53;;;22.00;99.90;;;;;;5031894;28;20220;-74
2022/09/29 03:06:20;;;;;;;1.07;0.70;;;21.70;99.90;;;;;;5033340;28;20178;-72
2022/09/29 03:08:48;;;;;;;1.20;0.60;;;21.50;99.90;;;;;;5033340;28;20177;-72
2022/09/29 03:11:15;;;;;;;0.93;0.50;;;21.40;99.90;;;;;;5033258;28;20180;-77
2022/09/29 03:13:45;;;;;;;4.00;0.70;;;21.40;99.90;;;;;;5032990;28;20706;-72
2022/09/29 03:16:13;;;;;;;2.00;0.50;;;21.10;99.90;;;;;;5033946;28;20179;-73
2022/09/29 03:18:41;;;;;;;2.80;0.70;;;21.10;99.90;;;;;;5032837;28;20241;-73
2022/09/29 03:21:09;;;;;;;3.07;0.90;;;20.90;99.90;;;;;;5033258;28;20213;-72
2022/09/29 03:23:36;;;;;;;2.77;0.60;;;20.80;99.90;;;;;;5033114;28;20207;-71
2022/09/29 03:26:04;;;;;;;3.13;1.07;;;20.40;99.90;;;;;;5032894;28;20646;-73
2022/09/29 03:28:32;;;;;;;2.03;1.00;;;20.00;99.90;;;;;;5042202;28;20177;-72
2022/09/29 03:31:08;;;;;;;1.13;0.70;;;19.30;99.90;;;;;;5058180;28;20185;-73
2022/09/29 03:33:39;;;;;;;2.77;0.87;;;18.90;99.90;;;;;;5057701;28;20182;-71
2022/09/29 03:36:08;;;;;;;2.10;0.90;;;18.80;99.90;;;;;;5048964;28;20170;-70
2022/09/29 03:38:35;;;;;;;2.63;0.87;;;19.10;99.90;;;;;;5032872;28;20646;-71
2022/09/29 03:41:04;;;;;;;4.47;1.00;;;19.20;99.90;;;;;;5033388;28;20261;-73
2022/09/29 03:43:31;;;;;;;6.07;1.03;;;19.30;99.90;;;;;;5032843;28;20216;-71
2022/09/29 03:45:59;;;;;;;3.63;1.27;;;19.60;99.90;;;;;;5032906;28;20702;-71
2022/09/29 03:48:30;;;;;;;2.00;0.80;;;19.80;99.90;;;;;;5033028;28;20618;-71
2022/09/29 03:50:58;;;;;;;2.03;0.90;;;19.80;99.90;;;;;;5036465;28;20662;-71
2022/09/29 03:53:26;;;;;;;3.00;1.30;;;19.90;99.90;;;;;;5036551;28;20191;-71
2022/09/29 03:55:57;;;;;;;4.30;0.90;;;19.70;99.90;;;;;;5036355;28;20208;-71
2022/09/29 03:58:25;;;;;;;2.10;0.80;;;19.40;99.90;;;;;;5036237;28;20580;-71
2022/09/29 04:00:52;;;;;;;2.77;0.90;;;19.60;99.90;;;;;;5036174;28;20182;-72
2022/09/29 04:03:21;;;;;;;1.53;0.70;;;20.00;99.90;;;;;;5036781;28;20216;-70
2022/09/29 04:05:49;;;;;;;1.37;0.57;;;20.20;99.90;;;;;;5042863;28;20542;-71
2022/09/29 04:08:17;;;;;;;1.17;0.53;;;20.50;99.90;;;;;;5042185;28;20177;-71
2022/09/29 04:10:47;;;;;;;1.53;0.80;;;20.30;99.90;;;;;;5042164;28;20216;-71
2022/09/29 04:13:16;;;;;;;0.70;0.50;;;20.20;99.90;;;;;;5041686;28;20583;-70
2022/09/29 04:15:44;;;;;;;1.03;0.60;;;20.20;99.90;;;;;;5041309;28;20185;-72
2022/09/29 04:18:12;;;;;;;3.53;0.80;;;20.30;99.90;;;;;;5040355;28;20185;-71
2022/09/29 04:20:39;;;;;;;3.57;1.00;;;20.30;99.90;;;;;;5040484;28;20371;-70
2022/09/29 04:23:07;;;;;;;1.43;0.50;;;20.70;99.90;;;;;;5040164;28;20205;-71
2022/09/29 04:25:35;;;;;;;1.90;0.90;;;20.60;99.90;;;;;;5040207;28;20184;-70
2022/09/29 04:28:03;;;;;;;6.83;1.30;;;20.50;99.90;;;;;;5039350;28;20209;-73
2022/09/29 04:30:31;;;;;;;1.70;0.60;;;20.40;99.90;;;;;;5039305;28;20209;-70
2022/09/29 04:33:00;;;;;;;6.83;1.27;;;20.30;99.90;;;;;;5039291;28;20177;-70
2022/09/29 04:35:28;;;;;;;8.83;0.77;;;20.50;99.90;;;;;;5038762;28;20632;-70
2022/09/29 04:37:59;;;;;;;1.23;0.47;;;21.00;99.90;;;;;;5038938;28;20651;-70
2022/09/29 04:40:26;;;;;;;2.57;0.43;;;21.00;99.90;;;;;;5039875;28;20201;-69
2022/09/29 04:42:54;;;;;;;1.50;0.40;;;20.80;99.90;;;;;;5035768;28;20217;-69
2022/09/29 04:45:22;;;;;;;3.07;0.50;;;20.50;99.90;;;;;;5037316;28;20219;-72
2022/09/29 04:47:50;;;;;;;0.80;0.40;;;20.00;99.90;;;;;;5037238;28;20177;-71
2022/09/29 04:50:18;;;;;;;0.40;0.30;;;20.00;99.90;;;;;;5036939;28;20261;-72
2022/09/29 04:52:45;;;;;;;1.50;0.50;;;19.90;99.90;;;;;;5037300;28;20265;-71
2022/09/29 04:55:14;;;;;;;0.40;0.40;;;19.70;99.90;;;;;;5037173;28;20260;-72
2022/09/29 04:57:43;;;;;;;0.73;0.50;;;19.60;99.90;;;;;;5020261;28;20209;-71
2022/09/29 05:00:12;;;;;;;2.23;0.53;;;19.60;99.90;;;;;;5035693;28;20177;-72
2022/09/29 05:02:40;;;;;;;0.57;0.40;;;19.70;99.90;;;;;;5036271;28;20658;-71
2022/09/29 05:05:11;;;;;;;2.57;0.70;;;19.50;99.90;;;;;;5037226;28;20258;-71
2022/09/29 05:07:40;;;;;;;1.47;0.50;;;19.30;99.90;;;;;;5036943;28;20626;-72
2022/09/29 05:10:09;;;;;;;3.33;1.33;;;19.20;99.90;;;;;;5037151;28;20174;-72
2022/09/29 05:12:37;;;;;;;1.07;0.50;;;19.30;99.90;;;;;;5036766;28;20650;-71
2022/09/29 05:15:05;;;;;;;2.40;0.50;;;19.30;99.90;;;;;;5036717;28;20173;-71
2022/09/29 05:17:33;;;;;;;2.43;0.70;;;19.10;99.90;;;;;;5037285;28;20173;-71
2022/09/29 05:20:02;;;;;;;1.77;0.57;;;19.00;99.90;;;;;;5036030;28;20680;-71
2022/09/29 05:22:30;;;;;;;1.40;0.50;;;19.00;99.90;;;;;;5041264;28;20197;-71
2022/09/29 05:24:58;;;;;;;2.10;0.70;;;19.10;99.90;;;;;;5042349;28;20199;-72
2022/09/29 05:27:26;;;;;;;3.87;0.90;;;19.20;99.90;;;;;;5043247;28;20186;-72
2022/09/29 05:29:54;;;;;;;3.43;0.80;;;19.10;99.90;;;;;;5040905;28;20606;-72
2022/09/29 05:32:22;;;;;;;2.43;0.70;;;19.00;99.90;;;;;;5041917;28;20181;-73
2022/09/29 05:34:50;;;;;;;1.27;0.87;;;18.90;99.90;;;;;;5042184;28;20184;-73
2022/09/29 05:37:17;;;;;;;2.13;0.90;;;18.80;99.90;;;;;;5042312;28;20264;-73
2022/09/29 05:39:46;;;;;;;4.37;0.80;;;18.70;99.90;;;;;;5039843;28;20184;-72
2022/09/29 05:42:15;;;;;;;2.60;0.70;;;18.50;99.90;;;;;;5042021;28;20205;-72
2022/09/29 05:44:44;;;;;;;0.67;0.43;;;18.40;99.90;;;;;;5037008;28;20189;-71
2022/09/29 05:47:12;;;;;;;2.43;0.60;;;18.20;99.90;;;;;;5038917;28;20186;-71
2022/09/29 05:49:41;;;;;;;1.50;0.50;;;18.00;99.90;;;;;;5039003;28;20208;-73
2022/09/29 05:52:08;;;;;;;1.50;0.60;;;17.90;99.90;;;;;;5039158;28;20183;-71
2022/09/29 05:54:36;;;;;;;0.93;0.50;;;18.00;99.90;;;;;;5038782;28;20185;-73
2022/09/29 05:57:05;;;;;;;3.87;0.50;;;17.90;99.90;;;;;;5035997;28;20185;-72
2022/09/29 05:59:35;;;;;;;0.50;0.40;;;17.80;99.90;;;;;;5037961;28;20178;-71
2022/09/29 06:02:03;;;;;;;3.40;1.27;;;17.50;99.90;;;;;;5018613;28;20529;-73
2022/09/29 06:04:30;;;;;;;1.30;0.50;;;17.20;99.90;;;;;;5035800;28;20204;-71
2022/09/29 06:06:58;;;;;;;1.20;0.70;;;16.90;99.90;;;;;;5035841;28;20261;-71
2022/09/29 06:09:26;;;;;;;2.00;0.80;;;16.80;99.90;;;;;;5035166;28;20184;-70
2022/09/29 06:11:54;;;;;;;2.20;0.80;;;16.70;99.90;;;;;;5034804;28;20176;-71
2022/09/29 06:14:22;;;;;;;3.93;1.50;;;16.60;99.90;;;;;;5036592;28;20203;-71
2022/09/29 06:16:49;;;;;;;5.00;0.90;;;16.60;99.90;;;;;;5036156;28;20173;-71
2022/09/29 06:19:17;;;;;;;3.50;0.90;;;16.60;99.90;;;;;;5036017;28;20225;-71
2022/09/29 06:21:45;;;;;;;2.63;1.07;;;16.70;99.90;;;;;;5035849;28;20195;-72
2022/09/29 06:24:13;;;;;;;5.93;1.20;;;16.60;99.90;;;;;;5037973;28;20220;-69
2022/09/29 06:26:40;;;;;;;5.70;1.17;;;16.60;99.90;;;;;;5037015;28;20169;-72
2022/09/29 06:29:08;;;;;;;5.50;1.10;;;16.60;99.90;;;;;;5037256;28;20169;-72
2022/09/29 06:31:38;;;;;;;7.93;1.07;;;16.70;99.90;;;;;;5037970;28;20181;-71
2022/09/29 06:34:05;;;;;;;5.47;1.77;;;16.70;99.90;;;;;;5039256;28;20177;-71
2022/09/29 06:39:30;;;;;;;2.07;0.90;;;16.60;99.90;;;;;;5039473;28;20538;-70
2022/09/29 06:41:58;;;;;;;3.23;1.13;;;16.60;99.90;;;;;;5038370;28;20207;-71
2022/09/29 06:44:29;;;;;;;2.23;0.83;;;16.60;99.90;;;;;;5038977;28;20200;-70
2022/09/29 06:46:58;;;;;;;1.87;0.70;;;16.70;99.90;;;;;;5039011;28;20185;-70
2022/09/29 06:49:26;;;;;;;2.03;0.90;;;16.70;99.90;;;;;;5040130;28;20188;-70
2022/09/29 06:51:54;;;;;;;1.30;0.70;;;16.60;99.90;;;;;;5037633;28;20197;-70
2022/09/29 06:54:26;;;;;;;2.53;1.23;;;16.70;99.90;;;;;;5034977;28;20177;-71
2022/09/29 06:56:54;;;;;;;1.50;1.30;;;16.60;99.90;;;;;;5036200;28;20178;-71
2022/09/29 06:59:22;;;;;;;4.70;1.10;;;16.40;99.90;;;;;;5035734;28;20185;-71
2022/09/29 07:01:50;;;;;;;2.33;1.13;;;16.30;99.90;;;;;;5034915;28;20184;-71
2022/09/29 07:04:18;;;;;;;5.33;1.43;;;16.30;99.90;;;;;;5034344;28;20197;-70
2022/09/29 07:06:46;;;;;;;5.83;1.50;;;16.10;99.90;;;;;;5036530;28;20644;-70
2022/09/29 07:09:17;;;;;;;5.40;1.37;;;16.00;99.90;;;;;;5036844;28;20185;-71
2022/09/29 07:11:48;;;;;;;4.53;1.20;;;16.00;99.90;;;;;;5037724;28;20162;-71
2022/09/29 07:14:24;;;;;;;1.97;1.03;;;16.00;99.90;;;;;;5038328;28;20174;-70
2022/09/29 07:16:52;;;;;;;8.17;1.57;;;15.90;99.90;;;;;;5037807;28;20590;-72
2022/09/29 07:19:20;;;;;;;12.67;1.97;;;16.00;99.90;;;;;;5038216;28;20255;-73
2022/09/29 07:21:48;;;;;;;9.07;3.87;;;16.00;99.90;;;;;;5039434;28;20180;-73
2022/09/29 07:24:17;;;;;;;10.70;2.43;;;16.10;99.90;;;;;;5040254;28;20239;-71
2022/09/29 07:26:45;;;;;;;13.80;4.53;;;16.10;99.90;;;;;;5042742;28;20642;-70
2022/09/29 07:29:12;;;;;;;12.40;2.80;;;16.10;99.90;;;;;;5043868;28;20201;-71
2022/09/29 07:31:40;;;;;;;16.67;3.07;;;16.10;99.90;;;;;;5043916;28;20256;-71
2022/09/29 07:34:08;;;;;;;11.23;2.43;;;16.20;99.90;;;;;;5043615;28;20635;-71
2022/09/29 07:36:37;;;;;;;15.70;2.77;;;16.20;99.90;;;;;;5045226;28;20178;-72
2022/09/29 07:39:05;;;;;;;13.00;3.80;;;16.20;99.90;;;;;;5059833;28;20172;-71
2022/09/29 07:41:34;;;;;;;10.93;2.60;;;16.20;99.90;;;;;;5061089;28;20192;-70
2022/09/29 07:44:02;;;;;;;13.57;3.07;;;16.20;99.90;;;;;;5049536;28;20212;-72
2022/09/29 07:46:31;;;;;;;6.67;2.03;;;16.30;99.90;;;;;;5039882;28;20688;-71
2022/09/29 07:48:59;;;;;;;12.13;2.30;;;16.20;99.90;;;;;;5042653;28;20177;-69
2022/09/29 07:51:27;;;;;;;13.13;2.47;;;16.20;99.90;;;;;;5041932;28;20179;-70
2022/09/29 07:53:55;;;;;;;13.77;2.57;;;16.20;99.90;;;;;;5041376;28;20185;-72
2022/09/29 07:56:23;;;;;;;17.87;2.80;;;16.20;99.90;;;;;;5042456;28;20652;-71
2022/09/29 07:58:51;;;;;;;10.00;2.37;;;16.10;99.90;;;;;;5042229;28;20222;-70
2022/09/29 08:01:21;;;;;;;11.73;2.77;;;16.10;99.90;;;;;;5043051;28;20248;-70
2022/09/29 08:03:54;;;;;;;10.70;2.20;;;15.90;99.90;;;;;;5041510;28;20312;-70
2022/09/29 08:06:25;;;;;;;8.50;1.93;;;16.00;99.90;;;;;;5043089;28;20249;-71
2022/09/29 08:08:53;;;;;;;14.93;5.30;;;15.90;99.90;;;;;;5043581;28;20658;-71
2022/09/29 08:11:21;;;;;;;24.00;7.10;;;16.00;99.90;;;;;;5043421;28;20178;-72
2022/09/29 08:13:52;;;;;;;11.73;2.77;;;15.90;99.90;;;;;;5042033;28;20195;-71
2022/09/29 08:16:20;;;;;;;15.57;2.30;;;15.90;99.90;;;;;;5043593;28;20160;-71
2022/09/29 08:18:49;;;;;;;9.73;2.43;;;15.90;99.90;;;;;;5042409;28;20181;-70
2022/09/29 08:21:17;;;;;;;11.23;1.80;;;15.90;99.90;;;;;;5042423;28;20173;-70
2022/09/29 08:23:45;;;;;;;5.57;1.63;;;15.90;99.90;;;;;;5042453;28;20221;-70
2022/09/29 08:26:15;;;;;;;4.20;1.57;;;15.90;99.90;;;;;;5042760;28;20229;-70
2022/09/29 08:28:44;;;;;;;10.47;2.60;;;15.90;99.90;;;;;;5042450;28;20204;-70
2022/09/29 08:31:15;;;;;;;6.60;1.50;;;15.90;99.90;;;;;;5040474;28;20233;-69
2022/09/29 08:33:43;;;;;;;5.17;1.30;;;15.90;99.90;;;;;;5036984;28;20200;-69
2022/09/29 08:36:15;;;;;;;4.27;1.73;;;15.90;99.90;;;;;;5037567;28;20211;-69
2022/09/29 08:38:44;;;;;;;6.40;1.40;;;15.90;99.90;;;;;;5038573;28;20231;-70
2022/09/29 08:41:44;;;;;;;5.20;1.50;;;15.80;99.90;;;;;;5040475;28;20209;-69
2022/09/29 08:44:15;;;;;;;12.50;1.57;;;15.80;99.90;;;;;;5039910;28;20227;-70
2022/09/29 08:46:53;;;;;;;7.37;1.80;;;15.70;99.90;;;;;;5039891;28;20693;-70
2022/09/29 08:49:40;;;;;;;5.87;1.47;;;15.70;99.90;;;;;;5039654;28;20177;-69
2022/09/29 08:52:24;;;;;;;6.27;1.37;;;15.70;99.90;;;;;;5040888;28;20232;-69
2022/09/29 08:55:02;;;;;;;8.37;1.73;;;15.80;99.90;;;;;;5039928;28;20180;-71
2022/09/29 08:57:30;;;;;;;5.80;1.90;;;15.70;99.90;;;;;;5040427;28;20165;-71
2022/09/29 09:00:00;;;;;;;7.57;1.57;;;15.80;99.90;;;;;;5040784;28;20178;-70
2022/09/29 09:02:49;;;;;;;12.07;1.90;;;15.80;99.90;;;;;;5041388;28;20205;-71
2022/09/29 09:06:17;;;;;;;6.67;1.70;;;15.80;99.90;;;;;;5042373;28;20194;-71
2022/09/29 09:08:59;;;;;;;8.20;1.63;;;15.80;99.90;;;;;;5019174;28;20184;-70
2022/09/29 09:12:09;;;;;;;13.13;1.57;;;15.80;99.90;;;;;;5042880;28;20176;-70
2022/09/29 09:14:58;;;;;;;7.87;1.77;;;15.70;99.90;;;;;;5013725;28;20220;-71
2022/09/29 09:17:50;;;;;;;5.43;1.47;;;15.80;99.90;;;;;;5042338;28;20572;-70
2022/09/29 09:20:27;;;;;;;8.23;1.87;;;15.80;99.90;;;;;;5043404;28;20221;-71
2022/09/29 09:22:58;;;;;;;5.03;1.33;;;15.80;99.90;;;;;;5046407;28;20216;-71
2022/09/29 09:25:30;;;;;;;5.90;1.50;;;15.70;99.90;;;;;;5045488;28;20207;-71
2022/09/29 09:28:20;;;;;;;7.33;1.80;;;15.80;99.90;;;;;;5045820;28;20173;-70
2022/09/29 09:30:58;;;;;;;7.00;2.13;;;15.80;99.90;;;;;;5045866;28;20161;-70
2022/09/29 09:33:53;;;;;;;6.30;1.63;;;15.70;99.90;;;;;;5047038;28;20477;-70
2022/09/29 09:36:31;;;;;;;4.20;1.40;;;15.80;99.90;;;;;;5045762;28;20205;-72
2022/09/29 09:39:14;;;;;;;9.20;1.30;;;15.70;99.90;;;;;;5045264;28;20184;-71
2022/09/29 09:41:45;;;;;;;8.10;1.70;;;15.70;99.90;;;;;;5046347;28;20183;-71
2022/09/29 09:44:16;;;;;;;4.77;1.47;;;15.70;99.90;;;;;;5044894;28;20264;-71
2022/09/29 09:46:54;;;;;;;6.47;1.57;;;15.80;99.90;;;;;;5046183;28;20248;-71
2022/09/29 09:49:37;;;;;;;10.70;1.43;;;15.70;99.90;;;;;;5046742;28;20166;-70
2022/09/29 09:52:12;;;;;;;8.30;1.60;;;15.70;99.90;;;;;;5046541;28;20173;-71
2022/09/29 09:54:47;;;;;;;6.97;1.60;;;15.60;99.90;;;;;;5045812;28;20180;-71
2022/09/29 09:57:27;;;;;;;5.10;1.30;;;15.60;99.90;;;;;;5044819;28;20660;-69
2022/09/29 10:00:10;;;;;;;8.87;1.63;;;15.60;99.90;;;;;;5045156;28;20272;-70
2022/09/29 10:02:46;;;;;;;7.20;1.43;;;15.60;99.90;;;;;;5045784;28;20216;-70
2022/09/29 10:05:25;;;;;;;3.23;1.57;;;15.50;99.90;;;;;;5044628;28;20594;-70
2022/09/29 10:07:55;;;;;;;5.67;1.33;;;15.60;99.90;;;;;;5045064;28;20157;-71
2022/09/29 10:10:27;;;;;;;5.30;2.33;;;15.60;99.90;;;;;;5045882;28;20185;-69
2022/09/29 10:13:07;;;;;;;3.00;1.40;;;15.50;99.90;;;;;;5044753;28;20173;-71
2022/09/29 10:15:42;;;;;;;2.47;1.00;;;15.50;99.90;;;;;;5044705;28;20173;-69
2022/09/29 10:18:36;;;;;;;8.87;1.27;;;15.50;99.90;;;;;;5043614;28;20176;-70
2022/09/29 10:21:04;;;;;;;7.10;1.33;;;15.50;99.90;;;;;;5038829;28;20204;-70
2022/09/29 10:23:34;;;;;;;5.80;1.30;;;15.40;99.90;;;;;;5045818;28;20615;-70
2022/09/29 10:26:44;;;;;;;10.53;1.80;;;15.40;99.90;;;;;;5045626;28;20226;-69
2022/09/29 10:29:25;;;;;;;7.43;1.70;;;15.40;99.90;;;;;;4985587;28;20191;-69
2022/09/29 10:32:08;;;;;;;9.57;1.77;;;15.40;99.90;;;;;;4984684;28;20261;-69
2022/09/29 10:34:42;;;;;;;7.10;1.50;;;15.40;99.90;;;;;;5029562;28;20231;-69
2022/09/29 10:37:22;;;;;;;6.37;1.53;;;15.40;99.90;;;;;;5046099;28;20172;-70
2022/09/29 10:40:01;;;;;;;10.83;2.17;;;15.30;99.90;;;;;;5046257;28;20235;-70
2022/09/29 10:42:40;;;;;;;5.57;1.67;;;15.30;99.90;;;;;;5045602;28;20199;-68
2022/09/29 10:45:20;;;;;;;5.07;1.50;;;15.30;99.90;;;;;;5043933;28;20180;-70
2022/09/29 10:48:13;;;;;;;7.00;1.90;;;15.30;99.90;;;;;;5044672;28;20181;-70
2022/09/29 10:50:58;;;;;;;4.17;1.47;;;15.30;99.90;;;;;;5043896;28;20225;-69
2022/09/29 10:53:39;;;;;;;5.40;1.47;;;15.20;99.90;;;;;;5045428;28;20183;-68
2022/09/29 10:56:20;;;;;;;7.80;1.80;;;15.20;99.90;;;;;;5045402;28;20185;-71
2022/09/29 10:59:00;;;;;;;4.97;1.53;;;15.30;99.90;;;;;;5041812;28;20279;-70
2022/09/29 11:01:31;;;;;;;10.10;1.70;;;15.20;99.90;;;;;;5045613;28;20158;-70
2022/09/29 11:04:15;;;;;;;6.10;1.60;;;15.20;99.90;;;;;;5045009;28;20236;-70
2022/09/29 11:06:43;;;;;;;8.07;1.90;;;15.30;99.90;;;;;;5044074;28;20184;-70
2022/09/29 11:09:16;;;;;;;4.60;1.37;;;15.20;99.90;;;;;;5043605;28;20202;-70
2022/09/29 11:11:48;;;;;;;7.13;1.50;;;15.20;99.90;;;;;;5044870;28;20183;-70
2022/09/29 11:14:37;;;;;;;3.73;1.20;;;15.20;99.90;;;;;;5043491;28;20170;-71
2022/09/29 11:17:25;;;;;;;9.33;2.03;;;15.20;99.90;;;;;;5042363;28;20178;-71
2022/09/29 11:19:54;;;;;;;11.87;1.80;;;15.20;99.90;;;;;;5044356;28;20217;-71
2022/09/29 11:23:16;;;;;;;3.50;1.37;;;15.10;99.90;;;;;;5041541;28;20205;-71
2022/09/29 11:25:56;;;;;;;5.50;1.70;;;15.10;99.90;;;;;;4982411;28;20189;-71
2022/09/29 11:28:49;;;;;;;6.50;1.60;;;15.10;99.90;;;;;;5037813;28;20212;-70
2022/09/29 11:31:39;;;;;;;5.20;1.53;;;15.10;99.90;;;;;;5043768;28;20181;-71
2022/09/29 11:34:15;;;;;;;6.40;1.60;;;15.00;99.90;;;;;;5044449;28;20270;-71
2022/09/29 11:37:05;;;;;;;6.23;1.50;;;15.00;99.90;;;;;;5043823;28;20179;-71
2022/09/29 11:40:11;;;;;;;5.87;1.50;;;14.90;99.90;;;;;;5056841;28;20164;-71
2022/09/29 11:42:46;;;;;;;6.33;1.93;;;14.80;99.90;;;;;;5039346;28;20197;-72
2022/09/29 11:45:17;;;;;;;13.70;2.57;;;14.70;99.90;;;;;;5049884;28;20247;-70
2022/09/29 11:48:05;;;;;;;6.17;1.80;;;14.70;99.90;;;;;;5040496;28;20200;-71
2022/09/29 11:50:37;;;;;;;11.60;2.37;;;14.70;99.90;;;;;;5042871;28;20599;-70
2022/09/29 11:53:23;;;;;;;11.00;2.17;;;14.70;99.90;;;;;;5042269;28;20178;-71
2022/09/29 11:56:30;;;;;;;7.13;1.60;;;14.60;99.90;;;;;;5042299;28;20181;-71
2022/09/29 11:58:57;;;;;;;6.23;1.77;;;14.60;99.90;;;;;;5041908;28;20267;-71
2022/09/29 12:01:51;;;;;;;3.40;1.67;;;14.60;99.90;;;;;;5042370;28;20623;-70
2022/09/29 12:04:51;;;;;;;8.27;1.70;;;14.60;99.90;;;;;;5041784;28;20221;-70
2022/09/29 12:07:30;;;;;;;10.17;1.90;;;14.50;99.90;;;;;;5035764;28;20186;-71
2022/09/29 12:10:07;;;;;;;8.30;1.77;;;14.60;99.90;;;;;;5036052;28;20227;-71
2022/09/29 12:12:45;;;;;;;6.47;1.80;;;14.60;99.90;;;;;;5036429;28;20176;-71
2022/09/29 12:15:31;;;;;;;9.13;1.70;;;14.60;99.90;;;;;;5036402;28;20740;-71
2022/09/29 12:18:09;;;;;;;4.50;1.50;;;14.70;99.90;;;;;;5036088;28;20532;-71
2022/09/29 12:20:42;;;;;;;8.67;2.20;;;14.70;99.90;;;;;;5035913;28;20240;-71
2022/09/29 12:23:13;;;;;;;8.27;1.63;;;14.80;99.90;;;;;;5035826;28;20276;-71
2022/09/29 12:26:01;;;;;;;7.90;1.63;;;14.80;99.90;;;;;;5034626;28;20185;-71
2022/09/29 12:28:40;;;;;;;6.63;1.37;;;14.80;99.90;;;;;;5036064;28;20181;-70
2022/09/29 12:31:24;;;;;;;7.70;1.60;;;14.90;99.90;;;;;;5034537;28;20212;-71
2022/09/29 12:34:06;;;;;;;13.77;2.03;;;14.90;99.90;;;;;;5034486;28;20685;-70
2022/09/29 12:36:52;;;;;;;9.87;1.77;;;15.00;99.90;;;;;;5035655;28;20234;-70
2022/09/29 12:39:26;;;;;;;6.60;2.10;;;14.90;99.90;;;;;;5035514;28;20172;-71
2022/09/29 12:42:15;;;;;;;6.03;1.60;;;15.00;99.90;;;;;;5035779;28;20255;-70
2022/09/29 12:45:01;;;;;;;9.57;1.97;;;14.90;99.90;;;;;;5035488;28;20193;-70
2022/09/29 12:48:01;;;;;;;6.03;2.20;;;15.00;99.90;;;;;;5035533;28;20170;-70
2022/09/29 12:50:57;;;;;;;11.13;2.43;;;15.00;99.90;;;;;;5035774;28;20188;-71
2022/09/29 12:53:52;;;;;;;18.57;2.37;;;15.00;99.90;;;;;;5035355;28;20639;-71
2022/09/29 12:56:25;;;;;;;9.40;2.20;;;15.00;99.90;;;;;;5035610;28;20559;-70
2022/09/29 12:59:07;;;;;;;10.67;2.33;;;15.00;99.90;;;;;;5034967;28;20209;-71
2022/09/29 13:01:37;;;;;;;14.00;2.30;;;15.10;99.90;;;;;;5035580;28;20184;-71
2022/09/29 13:04:30;;;;;;;7.17;2.17;;;15.10;99.90;;;;;;5035210;28;20319;-71
2022/09/29 13:07:16;;;;;;;5.80;1.70;;;15.20;99.90;;;;;;5035186;28;20577;-71
2022/09/29 13:10:12;;;;;;;12.80;2.40;;;15.20;99.90;;;;;;5035540;28;20173;-71
2022/09/29 13:12:55;;;;;;;10.13;2.13;;;15.10;99.90;;;;;;5035285;28;20534;-71
2022/09/29 13:15:50;;;;;;;9.07;1.67;;;15.10;99.90;;;;;;5035589;28;20185;-71
2022/09/29 13:18:39;;;;;;;10.10;2.37;;;15.00;99.90;;;;;;5034762;28;20226;-71
2022/09/29 13:21:07;;;;;;;7.43;1.90;;;15.10;99.90;;;;;;5033092;28;20193;-71
2022/09/29 13:23:39;;;;;;;11.07;2.00;;;15.10;99.90;;;;;;5034290;28;20216;-71
2022/09/29 13:26:15;;;;;;;7.30;1.63;;;15.00;99.90;;;;;;5034748;28;20537;-71
2022/09/29 13:28:56;;;;;;;12.73;1.97;;;15.00;99.90;;;;;;5033394;28;20191;-71
2022/09/29 13:31:29;;;;;;;10.57;2.20;;;15.00;99.90;;;;;;5034759;28;20181;-71